Fort Ross, California
Current Conditions -  °F | °C
As of 4:53 AM on Friday 28 Nov 2014 (Local Time) from KSTS Reporting Station
Moderate Fog Moderate Fog  
Wind Chill: 43°   Ceiling: 100
Heat Index: 45°   Visibility: 0.25mi
Dew Point: 45°   Wind: 5mph
Humidity: 100%   Direction: 340°NNW
Pressure: 30.02"   Gusts: NA
Location:  38.4962°N, 123.173°W
Report Text: KSTS 281253Z AUTO 34004KT 1/4SM FG VV001 07/07 A3002 RMK AO2 SLP160 T00720072
Loading
Personal Weather Stations






























Interactive Weather Map New forecast layout! Learn more

10-Day Weather Forecast

Advertisements
Track Severe Weather on mobile